Terminal Aerodrome Forecast
Issued by NWS Tallahassee, FL

Home | Current Version | Previous Version | Text Only | Print | Product List | Glossary On
Versions: 1 2 3 4 5 6 7 8 9 10 11 12 13 14 15 16 17 18 19 20 21
000
FTUS42 KTAE 191900 AAC
TAFTLH
TAF AMD
KTLH 191939Z 1920/2018 36011KT P6SM BKN013 OVC020
      TEMPO 1920/1922 3SM -DZ BKN007
     FM200000 02008KT P6SM BKN009
     FM200900 03010KT 5SM BR OVC006=

USA.gov is the U.S. government's official web portal to all federal, state and local government web resources and services.